Terminal Aerodrome Forecast
Issued by NWS Sioux Falls, SD

Home | Current Version | Previous Version | Text Only | Print | Product List | Glossary On
Versions: 1 2 3 4 5 6 7 8 9 10 11 12 13
000
FTUS43 KFSD 222222 AAB
TAFFSD
TAF AMD
KFSD 222222Z 2222/2318 20011KT P6SM OVC250
     FM230300 18009KT P6SM BKN120
     FM230900 14009KT P6SM VCSH BKN035
     FM231500 15010KT P6SM OVC025=

USA.gov is the U.S. government's official web portal to all federal, state and local government web resources and services.